sensor_id;sensor_type;location;lat;lon;timestamp;P1;durP1;ratioP1;P2;durP2;ratioP2
19179;SDS011;9722;48.754;8.868;2023-02-21T00:00:27;2.50;;;2.00;;
19179;SDS011;9722;48.754;8.868;2023-02-21T00:04:06;2.30;;;2.10;;
19179;SDS011;9722;48.754;8.868;2023-02-21T00:07:45;2.63;;;2.43;;
19179;SDS011;9722;48.754;8.868;2023-02-21T00:11:24;4.27;;;2.37;;
19179;SDS011;9722;48.754;8.868;2023-02-21T00:15:03;2.80;;;2.60;;
19179;SDS011;9722;48.754;8.868;2023-02-21T00:18:43;2.47;;;2.27;;
19179;SDS011;9722;48.754;8.868;2023-02-21T00:22:22;3.60;;;2.27;;
19179;SDS011;9722;48.754;8.868;2023-02-21T00:26:01;1.90;;;1.70;;
19179;SDS011;9722;48.754;8.868;2023-02-21T00:29:40;2.50;;;1.80;;
19179;SDS011;9722;48.754;8.868;2023-02-21T00:33:19;2.50;;;1.67;;
19179;SDS011;9722;48.754;8.868;2023-02-21T00:36:58;1.63;;;1.53;;
19179;SDS011;9722;48.754;8.868;2023-02-21T00:40:37;2.03;;;1.50;;
19179;SDS011;9722;48.754;8.868;2023-02-21T00:44:16;2.40;;;1.47;;
19179;SDS011;9722;48.754;8.868;2023-02-21T00:47:55;3.53;;;1.50;;
19179;SDS011;9722;48.754;8.868;2023-02-21T00:51:35;1.90;;;1.50;;
19179;SDS011;9722;48.754;8.868;2023-02-21T00:55:14;3.00;;;1.93;;
19179;SDS011;9722;48.754;8.868;2023-02-21T00:58:53;2.43;;;1.57;;
19179;SDS011;9722;48.754;8.868;2023-02-21T01:02:32;1.90;;;1.50;;
19179;SDS011;9722;48.754;8.868;2023-02-21T01:06:11;1.57;;;1.20;;
19179;SDS011;9722;48.754;8.868;2023-02-21T01:09:50;2.20;;;1.57;;
19179;SDS011;9722;48.754;8.868;2023-02-21T01:13:29;7.50;;;1.70;;
19179;SDS011;9722;48.754;8.868;2023-02-21T01:17:08;2.73;;;1.47;;
19179;SDS011;9722;48.754;8.868;2023-02-21T01:20:47;3.67;;;1.60;;
19179;SDS011;9722;48.754;8.868;2023-02-21T01:24:26;1.90;;;1.40;;
19179;SDS011;9722;48.754;8.868;2023-02-21T01:28:05;1.80;;;1.43;;
19179;SDS011;9722;48.754;8.868;2023-02-21T01:31:44;1.90;;;1.40;;
19179;SDS011;9722;48.754;8.868;2023-02-21T01:35:23;1.40;;;1.17;;
19179;SDS011;9722;48.754;8.868;2023-02-21T01:39:02;3.60;;;1.60;;
19179;SDS011;9722;48.754;8.868;2023-02-21T01:42:42;1.57;;;1.30;;
19179;SDS011;9722;48.754;8.868;2023-02-21T01:46:21;1.57;;;1.40;;
19179;SDS011;9722;48.754;8.868;2023-02-21T01:50:00;1.87;;;1.40;;
19179;SDS011;9722;48.754;8.868;2023-02-21T01:53:43;1.57;;;1.43;;
19179;SDS011;9722;48.754;8.868;2023-02-21T01:57:23;1.47;;;1.37;;
19179;SDS011;9722;48.754;8.868;2023-02-21T02:01:02;2.60;;;1.80;;
19179;SDS011;9722;48.754;8.868;2023-02-21T02:04:41;3.37;;;1.50;;
19179;SDS011;9722;48.754;8.868;2023-02-21T02:08:24;1.20;;;1.10;;
19179;SDS011;9722;48.754;8.868;2023-02-21T02:12:11;1.57;;;1.47;;
19179;SDS011;9722;48.754;8.868;2023-02-21T02:16:10;1.80;;;1.70;;
19179;SDS011;9722;48.754;8.868;2023-02-21T02:20:01;1.90;;;1.70;;
19179;SDS011;9722;48.754;8.868;2023-02-21T02:38:32;3.10;;;2.10;;
19179;SDS011;9722;48.754;8.868;2023-02-21T02:49:02;2.00;;;1.80;;
19179;SDS011;9722;48.754;8.868;2023-02-21T02:52:28;1.63;;;1.53;;
19179;SDS011;9722;48.754;8.868;2023-02-21T02:55:56;1.83;;;1.73;;
19179;SDS011;9722;48.754;8.868;2023-02-21T02:59:22;1.57;;;1.40;;
19179;SDS011;9722;48.754;8.868;2023-02-21T03:03:11;1.73;;;1.63;;
19179;SDS011;9722;48.754;8.868;2023-02-21T03:10:22;1.53;;;1.43;;
19179;SDS011;9722;48.754;8.868;2023-02-21T03:14:05;1.43;;;1.33;;
19179;SDS011;9722;48.754;8.868;2023-02-21T03:17:41;3.20;;;1.60;;
19179;SDS011;9722;48.754;8.868;2023-02-21T03:21:06;1.70;;;1.60;;
19179;SDS011;9722;48.754;8.868;2023-02-21T03:24:34;1.63;;;1.53;;
19179;SDS011;9722;48.754;8.868;2023-02-21T03:27:57;1.73;;;1.63;;
19179;SDS011;9722;48.754;8.868;2023-02-21T03:31:20;1.63;;;1.53;;
19179;SDS011;9722;48.754;8.868;2023-02-21T03:34:45;2.27;;;1.50;;
19179;SDS011;9722;48.754;8.868;2023-02-21T03:38:06;1.50;;;1.47;;
19179;SDS011;9722;48.754;8.868;2023-02-21T03:41:26;3.57;;;1.50;;
19179;SDS011;9722;48.754;8.868;2023-02-21T03:44:47;1.20;;;1.10;;
19179;SDS011;9722;48.754;8.868;2023-02-21T03:48:07;1.90;;;1.20;;
19179;SDS011;9722;48.754;8.868;2023-02-21T03:51:28;1.67;;;1.13;;
19179;SDS011;9722;48.754;8.868;2023-02-21T03:54:48;2.47;;;1.30;;
19179;SDS011;9722;48.754;8.868;2023-02-21T03:58:09;1.40;;;1.00;;
19179;SDS011;9722;48.754;8.868;2023-02-21T04:01:29;1.93;;;1.20;;
19179;SDS011;9722;48.754;8.868;2023-02-21T04:04:50;1.20;;;1.10;;
19179;SDS011;9722;48.754;8.868;2023-02-21T04:08:11;1.23;;;1.13;;
19179;SDS011;9722;48.754;8.868;2023-02-21T04:11:31;1.30;;;1.20;;
19179;SDS011;9722;48.754;8.868;2023-02-21T04:14:52;3.87;;;1.30;;
19179;SDS011;9722;48.754;8.868;2023-02-21T04:18:15;2.30;;;1.30;;
19179;SDS011;9722;48.754;8.868;2023-02-21T04:21:36;1.40;;;1.30;;
19179;SDS011;9722;48.754;8.868;2023-02-21T04:24:56;1.80;;;1.67;;
19179;SDS011;9722;48.754;8.868;2023-02-21T04:28:17;1.47;;;1.30;;
19179;SDS011;9722;48.754;8.868;2023-02-21T04:31:37;1.60;;;1.50;;
19179;SDS011;9722;48.754;8.868;2023-02-21T04:34:58;2.50;;;1.53;;
19179;SDS011;9722;48.754;8.868;2023-02-21T04:38:18;2.77;;;1.47;;
19179;SDS011;9722;48.754;8.868;2023-02-21T04:41:39;1.30;;;1.20;;
19179;SDS011;9722;48.754;8.868;2023-02-21T04:44:59;1.37;;;1.10;;
19179;SDS011;9722;48.754;8.868;2023-02-21T04:48:20;1.67;;;1.30;;
19179;SDS011;9722;48.754;8.868;2023-02-21T04:51:40;1.23;;;1.13;;
19179;SDS011;9722;48.754;8.868;2023-02-21T04:55:01;2.27;;;1.50;;
19179;SDS011;9722;48.754;8.868;2023-02-21T04:58:22;1.50;;;1.40;;
19179;SDS011;9722;48.754;8.868;2023-02-21T05:01:42;1.60;;;1.50;;
19179;SDS011;9722;48.754;8.868;2023-02-21T05:05:03;3.67;;;1.73;;
19179;SDS011;9722;48.754;8.868;2023-02-21T05:08:23;1.60;;;1.50;;
19179;SDS011;9722;48.754;8.868;2023-02-21T05:11:44;2.20;;;1.90;;
19179;SDS011;9722;48.754;8.868;2023-02-21T05:15:05;2.57;;;1.60;;
19179;SDS011;9722;48.754;8.868;2023-02-21T05:18:26;2.37;;;2.03;;
19179;SDS011;9722;48.754;8.868;2023-02-21T05:21:47;1.70;;;1.60;;
19179;SDS011;9722;48.754;8.868;2023-02-21T05:25:15;2.80;;;1.87;;
19179;SDS011;9722;48.754;8.868;2023-02-21T05:28:38;1.70;;;1.60;;
19179;SDS011;9722;48.754;8.868;2023-02-21T05:31:59;1.87;;;1.70;;
19179;SDS011;9722;48.754;8.868;2023-02-21T05:35:20;2.57;;;1.90;;
19179;SDS011;9722;48.754;8.868;2023-02-21T05:38:44;3.10;;;2.30;;
19179;SDS011;9722;48.754;8.868;2023-02-21T05:42:09;2.30;;;2.10;;
19179;SDS011;9722;48.754;8.868;2023-02-21T05:45:30;4.23;;;1.77;;
19179;SDS011;9722;48.754;8.868;2023-02-21T05:48:50;2.63;;;1.90;;
19179;SDS011;9722;48.754;8.868;2023-02-21T05:52:12;2.30;;;2.00;;
19179;SDS011;9722;48.754;8.868;2023-02-21T05:55:34;2.67;;;1.90;;
19179;SDS011;9722;48.754;8.868;2023-02-21T05:58:55;1.70;;;1.60;;
19179;SDS011;9722;48.754;8.868;2023-02-21T06:02:15;4.43;;;1.80;;
19179;SDS011;9722;48.754;8.868;2023-02-21T06:05:36;1.40;;;1.30;;
19179;SDS011;9722;48.754;8.868;2023-02-21T06:08:56;1.40;;;1.30;;
19179;SDS011;9722;48.754;8.868;2023-02-21T06:12:17;4.27;;;1.83;;
19179;SDS011;9722;48.754;8.868;2023-02-21T06:15:37;2.90;;;2.10;;
19179;SDS011;9722;48.754;8.868;2023-02-21T06:18:58;2.10;;;1.90;;
19179;SDS011;9722;48.754;8.868;2023-02-21T06:22:18;2.00;;;1.80;;
19179;SDS011;9722;48.754;8.868;2023-02-21T06:25:39;2.00;;;1.80;;
19179;SDS011;9722;48.754;8.868;2023-02-21T06:28:59;1.50;;;1.40;;
19179;SDS011;9722;48.754;8.868;2023-02-21T06:32:20;1.53;;;1.43;;
19179;SDS011;9722;48.754;8.868;2023-02-21T06:35:40;1.77;;;1.67;;
19179;SDS011;9722;48.754;8.868;2023-02-21T06:39:01;1.77;;;1.67;;
19179;SDS011;9722;48.754;8.868;2023-02-21T06:42:21;2.87;;;2.10;;
19179;SDS011;9722;48.754;8.868;2023-02-21T06:45:42;2.83;;;1.73;;
19179;SDS011;9722;48.754;8.868;2023-02-21T06:49:03;2.67;;;1.70;;
19179;SDS011;9722;48.754;8.868;2023-02-21T06:52:23;1.53;;;1.33;;
19179;SDS011;9722;48.754;8.868;2023-02-21T06:55:44;3.07;;;2.77;;
19179;SDS011;9722;48.754;8.868;2023-02-21T06:59:05;4.73;;;4.00;;
19179;SDS011;9722;48.754;8.868;2023-02-21T07:02:25;3.73;;;3.20;;
19179;SDS011;9722;48.754;8.868;2023-02-21T07:05:46;2.90;;;2.10;;
19179;SDS011;9722;48.754;8.868;2023-02-21T07:09:06;3.90;;;3.10;;
19179;SDS011;9722;48.754;8.868;2023-02-21T07:12:27;4.93;;;2.90;;
19179;SDS011;9722;48.754;8.868;2023-02-21T07:15:48;3.40;;;3.10;;
19179;SDS011;9722;48.754;8.868;2023-02-21T07:19:08;3.70;;;2.80;;
19179;SDS011;9722;48.754;8.868;2023-02-21T07:22:34;3.20;;;2.70;;
19179;SDS011;9722;48.754;8.868;2023-02-21T07:25:55;7.80;;;4.73;;
19179;SDS011;9722;48.754;8.868;2023-02-21T07:29:15;5.47;;;3.80;;
19179;SDS011;9722;48.754;8.868;2023-02-21T07:32:36;2.40;;;2.20;;
19179;SDS011;9722;48.754;8.868;2023-02-21T07:35:57;2.43;;;2.20;;
19179;SDS011;9722;48.754;8.868;2023-02-21T07:39:17;2.37;;;1.83;;
19179;SDS011;9722;48.754;8.868;2023-02-21T07:42:40;3.43;;;2.10;;
19179;SDS011;9722;48.754;8.868;2023-02-21T07:46:08;2.80;;;2.60;;
19179;SDS011;9722;48.754;8.868;2023-02-21T07:49:30;7.23;;;5.17;;
19179;SDS011;9722;48.754;8.868;2023-02-21T07:52:51;6.87;;;5.97;;
19179;SDS011;9722;48.754;8.868;2023-02-21T07:56:11;5.70;;;4.87;;
19179;SDS011;9722;48.754;8.868;2023-02-21T07:59:32;12.23;;;5.77;;
19179;SDS011;9722;48.754;8.868;2023-02-21T08:02:52;3.63;;;3.20;;
19179;SDS011;9722;48.754;8.868;2023-02-21T08:06:13;4.60;;;3.10;;
19179;SDS011;9722;48.754;8.868;2023-02-21T08:09:34;4.20;;;2.83;;
19179;SDS011;9722;48.754;8.868;2023-02-21T08:12:55;4.70;;;4.20;;
19179;SDS011;9722;48.754;8.868;2023-02-21T08:16:16;5.33;;;4.83;;
19179;SDS011;9722;48.754;8.868;2023-02-21T08:19:36;3.60;;;3.17;;
19179;SDS011;9722;48.754;8.868;2023-02-21T08:22:57;6.47;;;2.70;;
19179;SDS011;9722;48.754;8.868;2023-02-21T08:26:17;3.43;;;2.60;;
19179;SDS011;9722;48.754;8.868;2023-02-21T08:29:38;4.40;;;2.70;;
19179;SDS011;9722;48.754;8.868;2023-02-21T08:32:59;3.30;;;2.40;;
19179;SDS011;9722;48.754;8.868;2023-02-21T08:36:20;4.07;;;2.50;;
19179;SDS011;9722;48.754;8.868;2023-02-21T08:39:42;3.03;;;2.73;;
19179;SDS011;9722;48.754;8.868;2023-02-21T08:43:05;2.97;;;2.67;;
19179;SDS011;9722;48.754;8.868;2023-02-21T08:46:25;3.67;;;2.80;;
19179;SDS011;9722;48.754;8.868;2023-02-21T08:49:46;4.03;;;2.97;;
19179;SDS011;9722;48.754;8.868;2023-02-21T08:53:08;6.80;;;3.17;;
19179;SDS011;9722;48.754;8.868;2023-02-21T08:56:31;3.53;;;3.23;;
19179;SDS011;9722;48.754;8.868;2023-02-21T08:59:52;6.50;;;3.07;;
19179;SDS011;9722;48.754;8.868;2023-02-21T09:03:13;4.50;;;3.03;;
19179;SDS011;9722;48.754;8.868;2023-02-21T09:06:34;3.80;;;2.80;;
19179;SDS011;9722;48.754;8.868;2023-02-21T09:09:54;3.17;;;2.60;;
19179;SDS011;9722;48.754;8.868;2023-02-21T09:13:15;3.50;;;2.90;;
19179;SDS011;9722;48.754;8.868;2023-02-21T09:16:35;2.80;;;2.60;;
19179;SDS011;9722;48.754;8.868;2023-02-21T09:19:56;4.53;;;2.73;;
19179;SDS011;9722;48.754;8.868;2023-02-21T09:23:17;3.40;;;3.03;;
19179;SDS011;9722;48.754;8.868;2023-02-21T09:26:39;3.07;;;2.87;;
19179;SDS011;9722;48.754;8.868;2023-02-21T09:29:59;5.37;;;3.33;;
19179;SDS011;9722;48.754;8.868;2023-02-21T09:33:20;5.80;;;2.60;;
19179;SDS011;9722;48.754;8.868;2023-02-21T09:36:40;5.33;;;2.80;;
19179;SDS011;9722;48.754;8.868;2023-02-21T09:40:01;4.03;;;2.93;;
19179;SDS011;9722;48.754;8.868;2023-02-21T09:43:25;2.93;;;2.30;;
19179;SDS011;9722;48.754;8.868;2023-02-21T09:46:51;6.73;;;4.23;;
19179;SDS011;9722;48.754;8.868;2023-02-21T09:50:24;2.83;;;2.40;;
19179;SDS011;9722;48.754;8.868;2023-02-21T09:53:49;3.93;;;2.73;;
19179;SDS011;9722;48.754;8.868;2023-02-21T09:57:14;5.30;;;2.80;;
19179;SDS011;9722;48.754;8.868;2023-02-21T10:00:37;2.73;;;2.00;;
19179;SDS011;9722;48.754;8.868;2023-02-21T10:04:04;4.63;;;2.33;;
19179;SDS011;9722;48.754;8.868;2023-02-21T10:07:38;3.83;;;2.10;;
19179;SDS011;9722;48.754;8.868;2023-02-21T10:11:20;1.70;;;1.60;;
19179;SDS011;9722;48.754;8.868;2023-02-21T10:18:38;5.27;;;2.60;;
19179;SDS011;9722;48.754;8.868;2023-02-21T10:22:20;1.73;;;1.10;;
19179;SDS011;9722;48.754;8.868;2023-02-21T10:25:45;3.30;;;1.30;;
19179;SDS011;9722;48.754;8.868;2023-02-21T10:29:17;1.40;;;1.30;;
19179;SDS011;9722;48.754;8.868;2023-02-21T10:32:44;2.17;;;1.10;;
19179;SDS011;9722;48.754;8.868;2023-02-21T10:36:38;1.17;;;1.07;;
19179;SDS011;9722;48.754;8.868;2023-02-21T10:39:52;1.47;;;0.90;;
19179;SDS011;9722;48.754;8.868;2023-02-21T10:43:27;1.60;;;1.10;;
19179;SDS011;9722;48.754;8.868;2023-02-21T10:47:03;1.20;;;0.73;;
19179;SDS011;9722;48.754;8.868;2023-02-21T10:50:43;2.70;;;0.80;;
19179;SDS011;9722;48.754;8.868;2023-02-21T10:54:17;2.10;;;0.87;;
19179;SDS011;9722;48.754;8.868;2023-02-21T10:57:43;1.20;;;0.70;;
19179;SDS011;9722;48.754;8.868;2023-02-21T11:01:10;2.33;;;0.70;;
19179;SDS011;9722;48.754;8.868;2023-02-21T11:04:36;0.90;;;0.90;;
19179;SDS011;9722;48.754;8.868;2023-02-21T11:08:00;1.50;;;1.20;;
19179;SDS011;9722;48.754;8.868;2023-02-21T11:11:32;1.43;;;0.90;;
19179;SDS011;9722;48.754;8.868;2023-02-21T11:18:21;0.77;;;0.70;;
19179;SDS011;9722;48.754;8.868;2023-02-21T11:21:44;2.23;;;0.70;;
19179;SDS011;9722;48.754;8.868;2023-02-21T11:25:25;0.67;;;0.67;;
19179;SDS011;9722;48.754;8.868;2023-02-21T11:28:47;2.33;;;0.90;;
19179;SDS011;9722;48.754;8.868;2023-02-21T11:32:09;1.27;;;0.70;;
19179;SDS011;9722;48.754;8.868;2023-02-21T11:35:48;1.17;;;0.77;;
19179;SDS011;9722;48.754;8.868;2023-02-21T11:39:14;0.93;;;0.93;;
19179;SDS011;9722;48.754;8.868;2023-02-21T11:42:38;0.73;;;0.73;;
19179;SDS011;9722;48.754;8.868;2023-02-21T11:50:01;0.77;;;0.77;;
19179;SDS011;9722;48.754;8.868;2023-02-21T11:53:30;1.67;;;0.93;;
19179;SDS011;9722;48.754;8.868;2023-02-21T11:56:58;0.73;;;0.47;;
19179;SDS011;9722;48.754;8.868;2023-02-21T12:01:01;2.20;;;0.63;;
19179;SDS011;9722;48.754;8.868;2023-02-21T12:11:35;0.70;;;0.52;;
19179;SDS011;9722;48.754;8.868;2023-02-21T12:15:20;1.20;;;0.50;;
19179;SDS011;9722;48.754;8.868;2023-02-21T12:19:01;0.32;;;0.30;;
19179;SDS011;9722;48.754;8.868;2023-02-21T12:22:53;0.50;;;0.50;;
19179;SDS011;9722;48.754;8.868;2023-02-21T12:26:30;0.50;;;0.50;;
19179;SDS011;9722;48.754;8.868;2023-02-21T12:30:14;2.00;;;0.50;;
19179;SDS011;9722;48.754;8.868;2023-02-21T12:33:46;1.13;;;0.57;;
19179;SDS011;9722;48.754;8.868;2023-02-21T12:52:27;0.57;;;0.47;;
19179;SDS011;9722;48.754;8.868;2023-02-21T12:56:11;0.93;;;0.60;;
19179;SDS011;9722;48.754;8.868;2023-02-21T12:59:45;0.97;;;0.70;;
19179;SDS011;9722;48.754;8.868;2023-02-21T13:03:30;1.10;;;0.67;;
19179;SDS011;9722;48.754;8.868;2023-02-21T13:07:13;0.83;;;0.50;;
19179;SDS011;9722;48.754;8.868;2023-02-21T13:10:49;0.80;;;0.40;;
19179;SDS011;9722;48.754;8.868;2023-02-21T13:15:11;1.23;;;0.60;;
19179;SDS011;9722;48.754;8.868;2023-02-21T13:25:35;0.60;;;0.40;;
19179;SDS011;9722;48.754;8.868;2023-02-21T13:29:27;2.00;;;0.40;;
19179;SDS011;9722;48.754;8.868;2023-02-21T13:32:54;0.43;;;0.40;;
19179;SDS011;9722;48.754;8.868;2023-02-21T13:36:39;0.83;;;0.20;;
19179;SDS011;9722;48.754;8.868;2023-02-21T13:43:46;0.60;;;0.40;;
19179;SDS011;9722;48.754;8.868;2023-02-21T13:47:12;0.73;;;0.50;;
19179;SDS011;9722;48.754;8.868;2023-02-21T13:54:08;1.75;;;0.32;;
19179;SDS011;9722;48.754;8.868;2023-02-21T13:57:31;1.73;;;0.50;;
19179;SDS011;9722;48.754;8.868;2023-02-21T14:00:53;0.60;;;0.50;;
19179;SDS011;9722;48.754;8.868;2023-02-21T14:08:30;0.73;;;0.40;;
19179;SDS011;9722;48.754;8.868;2023-02-21T14:11:55;0.85;;;0.35;;
19179;SDS011;9722;48.754;8.868;2023-02-21T14:15:23;1.02;;;0.52;;
19179;SDS011;9722;48.754;8.868;2023-02-21T14:19:00;1.05;;;0.60;;
19179;SDS011;9722;48.754;8.868;2023-02-21T14:22:31;0.70;;;0.60;;
19179;SDS011;9722;48.754;8.868;2023-02-21T14:25:56;0.40;;;0.40;;
19179;SDS011;9722;48.754;8.868;2023-02-21T14:32:56;0.37;;;0.37;;
19179;SDS011;9722;48.754;8.868;2023-02-21T14:36:32;2.00;;;0.60;;
19179;SDS011;9722;48.754;8.868;2023-02-21T14:51:16;0.30;;;0.30;;
19179;SDS011;9722;48.754;8.868;2023-02-21T15:06:09;0.67;;;0.40;;
19179;SDS011;9722;48.754;8.868;2023-02-21T15:09:37;1.30;;;0.60;;
19179;SDS011;9722;48.754;8.868;2023-02-21T15:12:58;0.40;;;0.40;;
19179;SDS011;9722;48.754;8.868;2023-02-21T15:16:21;0.70;;;0.50;;
19179;SDS011;9722;48.754;8.868;2023-02-21T15:19:41;1.17;;;0.40;;
19179;SDS011;9722;48.754;8.868;2023-02-21T15:26:29;0.40;;;0.40;;
19179;SDS011;9722;48.754;8.868;2023-02-21T15:30:07;1.03;;;0.50;;
19179;SDS011;9722;48.754;8.868;2023-02-21T15:36:58;1.40;;;0.90;;
19179;SDS011;9722;48.754;8.868;2023-02-21T15:40:36;1.87;;;1.00;;
19179;SDS011;9722;48.754;8.868;2023-02-21T15:47:29;5.43;;;1.70;;
19179;SDS011;9722;48.754;8.868;2023-02-21T15:50:53;3.77;;;1.43;;
19179;SDS011;9722;48.754;8.868;2023-02-21T15:57:39;3.40;;;1.60;;
19179;SDS011;9722;48.754;8.868;2023-02-21T16:01:03;2.73;;;1.50;;
19179;SDS011;9722;48.754;8.868;2023-02-21T16:04:33;3.10;;;1.53;;
19179;SDS011;9722;48.754;8.868;2023-02-21T16:08:01;3.03;;;1.80;;
19179;SDS011;9722;48.754;8.868;2023-02-21T16:11:24;3.13;;;1.90;;
19179;SDS011;9722;48.754;8.868;2023-02-21T16:14:57;2.57;;;1.70;;
19179;SDS011;9722;48.754;8.868;2023-02-21T16:18:19;5.33;;;2.03;;
19179;SDS011;9722;48.754;8.868;2023-02-21T16:21:40;3.67;;;2.13;;
19179;SDS011;9722;48.754;8.868;2023-02-21T16:25:11;3.37;;;2.00;;
19179;SDS011;9722;48.754;8.868;2023-02-21T16:28:35;3.63;;;2.13;;
19179;SDS011;9722;48.754;8.868;2023-02-21T16:31:57;3.40;;;2.20;;
19179;SDS011;9722;48.754;8.868;2023-02-21T16:35:19;3.00;;;2.50;;
19179;SDS011;9722;48.754;8.868;2023-02-21T16:38:41;5.23;;;2.63;;
19179;SDS011;9722;48.754;8.868;2023-02-21T16:42:02;5.27;;;2.23;;
19179;SDS011;9722;48.754;8.868;2023-02-21T16:45:22;3.50;;;2.50;;
19179;SDS011;9722;48.754;8.868;2023-02-21T16:48:43;3.63;;;2.63;;
19179;SDS011;9722;48.754;8.868;2023-02-21T16:52:04;4.37;;;2.67;;
19179;SDS011;9722;48.754;8.868;2023-02-21T16:55:25;5.93;;;2.87;;
19179;SDS011;9722;48.754;8.868;2023-02-21T16:58:47;3.93;;;3.30;;
19179;SDS011;9722;48.754;8.868;2023-02-21T17:02:12;3.53;;;3.03;;
19179;SDS011;9722;48.754;8.868;2023-02-21T17:05:34;3.40;;;3.07;;
19179;SDS011;9722;48.754;8.868;2023-02-21T17:08:55;3.50;;;3.20;;
19179;SDS011;9722;48.754;8.868;2023-02-21T17:12:17;5.00;;;3.40;;
19179;SDS011;9722;48.754;8.868;2023-02-21T17:15:38;5.30;;;3.13;;
19179;SDS011;9722;48.754;8.868;2023-02-21T17:18:58;7.17;;;3.20;;
19179;SDS011;9722;48.754;8.868;2023-02-21T17:22:19;3.57;;;2.80;;
19179;SDS011;9722;48.754;8.868;2023-02-21T17:25:39;3.60;;;3.07;;
19179;SDS011;9722;48.754;8.868;2023-02-21T17:29:00;4.90;;;3.20;;
19179;SDS011;9722;48.754;8.868;2023-02-21T17:32:21;4.20;;;3.40;;
19179;SDS011;9722;48.754;8.868;2023-02-21T17:35:41;4.80;;;4.00;;
19179;SDS011;9722;48.754;8.868;2023-02-21T17:39:02;5.30;;;4.70;;
19179;SDS011;9722;48.754;8.868;2023-02-21T17:42:23;5.93;;;5.03;;
19179;SDS011;9722;48.754;8.868;2023-02-21T17:45:44;4.33;;;3.90;;
19179;SDS011;9722;48.754;8.868;2023-02-21T17:49:05;9.93;;;4.13;;
19179;SDS011;9722;48.754;8.868;2023-02-21T17:52:26;5.87;;;4.13;;
19179;SDS011;9722;48.754;8.868;2023-02-21T17:55:47;19.20;;;11.30;;
19179;SDS011;9722;48.754;8.868;2023-02-21T17:59:07;20.93;;;14.03;;
19179;SDS011;9722;48.754;8.868;2023-02-21T18:02:28;15.07;;;11.03;;
19179;SDS011;9722;48.754;8.868;2023-02-21T18:05:48;18.37;;;12.40;;
19179;SDS011;9722;48.754;8.868;2023-02-21T18:09:09;11.57;;;8.00;;
19179;SDS011;9722;48.754;8.868;2023-02-21T18:12:30;12.37;;;7.03;;
19179;SDS011;9722;48.754;8.868;2023-02-21T18:15:52;11.87;;;7.27;;
19179;SDS011;9722;48.754;8.868;2023-02-21T18:19:12;11.63;;;6.43;;
19179;SDS011;9722;48.754;8.868;2023-02-21T18:22:34;7.97;;;6.90;;
19179;SDS011;9722;48.754;8.868;2023-02-21T18:25:57;9.30;;;6.90;;
19179;SDS011;9722;48.754;8.868;2023-02-21T18:29:18;12.77;;;10.47;;
19179;SDS011;9722;48.754;8.868;2023-02-21T18:32:39;16.47;;;10.57;;
19179;SDS011;9722;48.754;8.868;2023-02-21T18:35:59;16.50;;;12.50;;
19179;SDS011;9722;48.754;8.868;2023-02-21T18:39:21;17.50;;;11.47;;
19179;SDS011;9722;48.754;8.868;2023-02-21T18:42:43;16.33;;;12.37;;
19179;SDS011;9722;48.754;8.868;2023-02-21T18:46:04;44.97;;;17.03;;
19179;SDS011;9722;48.754;8.868;2023-02-21T18:49:29;22.17;;;13.20;;
19179;SDS011;9722;48.754;8.868;2023-02-21T18:52:57;20.43;;;9.87;;
19179;SDS011;9722;48.754;8.868;2023-02-21T18:56:18;17.20;;;10.27;;
19179;SDS011;9722;48.754;8.868;2023-02-21T18:59:40;9.13;;;8.10;;
19179;SDS011;9722;48.754;8.868;2023-02-21T19:03:02;10.60;;;8.37;;
19179;SDS011;9722;48.754;8.868;2023-02-21T19:06:25;15.43;;;9.23;;
19179;SDS011;9722;48.754;8.868;2023-02-21T19:09:46;8.50;;;7.10;;
19179;SDS011;9722;48.754;8.868;2023-02-21T19:13:09;9.50;;;7.20;;
19179;SDS011;9722;48.754;8.868;2023-02-21T19:16:29;11.23;;;6.17;;
19179;SDS011;9722;48.754;8.868;2023-02-21T19:19:50;10.77;;;6.13;;
19179;SDS011;9722;48.754;8.868;2023-02-21T19:23:11;10.17;;;6.23;;
19179;SDS011;9722;48.754;8.868;2023-02-21T19:26:32;5.93;;;4.63;;
19179;SDS011;9722;48.754;8.868;2023-02-21T19:29:52;6.60;;;5.00;;
19179;SDS011;9722;48.754;8.868;2023-02-21T19:33:13;5.73;;;4.53;;
19179;SDS011;9722;48.754;8.868;2023-02-21T19:36:36;9.50;;;4.43;;
19179;SDS011;9722;48.754;8.868;2023-02-21T19:39:57;7.80;;;6.57;;
19179;SDS011;9722;48.754;8.868;2023-02-21T19:43:18;10.03;;;6.93;;
19179;SDS011;9722;48.754;8.868;2023-02-21T19:46:38;8.37;;;5.60;;
19179;SDS011;9722;48.754;8.868;2023-02-21T19:49:59;5.17;;;3.90;;
19179;SDS011;9722;48.754;8.868;2023-02-21T19:53:19;5.13;;;3.37;;
19179;SDS011;9722;48.754;8.868;2023-02-21T19:56:40;3.77;;;3.47;;
19179;SDS011;9722;48.754;8.868;2023-02-21T20:00:01;11.43;;;3.50;;
19179;SDS011;9722;48.754;8.868;2023-02-21T20:03:23;4.97;;;3.30;;
19179;SDS011;9722;48.754;8.868;2023-02-21T20:06:43;7.50;;;3.47;;
19179;SDS011;9722;48.754;8.868;2023-02-21T20:10:04;8.37;;;6.63;;
19179;SDS011;9722;48.754;8.868;2023-02-21T20:13:25;8.37;;;5.77;;
19179;SDS011;9722;48.754;8.868;2023-02-21T20:16:46;8.53;;;4.90;;
19179;SDS011;9722;48.754;8.868;2023-02-21T20:20:07;5.63;;;5.10;;
19179;SDS011;9722;48.754;8.868;2023-02-21T20:23:30;6.80;;;5.57;;
19179;SDS011;9722;48.754;8.868;2023-02-21T20:26:51;6.27;;;5.57;;
19179;SDS011;9722;48.754;8.868;2023-02-21T20:30:14;8.07;;;6.40;;
19179;SDS011;9722;48.754;8.868;2023-02-21T20:33:36;17.63;;;12.07;;
19179;SDS011;9722;48.754;8.868;2023-02-21T20:36:56;7.00;;;4.77;;
19179;SDS011;9722;48.754;8.868;2023-02-21T20:40:17;6.70;;;5.23;;
19179;SDS011;9722;48.754;8.868;2023-02-21T20:43:38;6.33;;;5.27;;
19179;SDS011;9722;48.754;8.868;2023-02-21T20:46:59;6.43;;;5.63;;
19179;SDS011;9722;48.754;8.868;2023-02-21T20:50:21;7.40;;;4.67;;
19179;SDS011;9722;48.754;8.868;2023-02-21T20:53:45;9.40;;;4.70;;
19179;SDS011;9722;48.754;8.868;2023-02-21T20:57:06;11.63;;;7.33;;
19179;SDS011;9722;48.754;8.868;2023-02-21T21:00:27;11.00;;;6.47;;
19179;SDS011;9722;48.754;8.868;2023-02-21T21:03:49;6.93;;;5.27;;
19179;SDS011;9722;48.754;8.868;2023-02-21T21:07:11;4.20;;;3.80;;
19179;SDS011;9722;48.754;8.868;2023-02-21T21:10:33;6.80;;;4.87;;
19179;SDS011;9722;48.754;8.868;2023-02-21T21:13:55;6.50;;;4.90;;
19179;SDS011;9722;48.754;8.868;2023-02-21T21:17:16;9.07;;;6.80;;
19179;SDS011;9722;48.754;8.868;2023-02-21T21:20:38;11.37;;;7.10;;
19179;SDS011;9722;48.754;8.868;2023-02-21T21:23:58;4.53;;;3.63;;
19179;SDS011;9722;48.754;8.868;2023-02-21T21:27:19;7.77;;;5.77;;
19179;SDS011;9722;48.754;8.868;2023-02-21T21:30:40;6.77;;;6.13;;
19179;SDS011;9722;48.754;8.868;2023-02-21T21:34:01;6.87;;;6.03;;
19179;SDS011;9722;48.754;8.868;2023-02-21T21:37:23;5.90;;;4.70;;
19179;SDS011;9722;48.754;8.868;2023-02-21T21:40:46;5.67;;;4.90;;
19179;SDS011;9722;48.754;8.868;2023-02-21T21:44:06;8.40;;;5.80;;
19179;SDS011;9722;48.754;8.868;2023-02-21T21:47:29;6.30;;;5.40;;
19179;SDS011;9722;48.754;8.868;2023-02-21T21:50:56;7.57;;;6.60;;
19179;SDS011;9722;48.754;8.868;2023-02-21T21:54:17;5.73;;;4.57;;
19179;SDS011;9722;48.754;8.868;2023-02-21T21:57:41;9.67;;;5.63;;
19179;SDS011;9722;48.754;8.868;2023-02-21T22:01:01;8.90;;;5.10;;
19179;SDS011;9722;48.754;8.868;2023-02-21T22:04:26;9.07;;;4.70;;
19179;SDS011;9722;48.754;8.868;2023-02-21T22:07:47;5.23;;;4.40;;
19179;SDS011;9722;48.754;8.868;2023-02-21T22:11:08;4.10;;;3.50;;
19179;SDS011;9722;48.754;8.868;2023-02-21T22:14:28;5.50;;;4.50;;
19179;SDS011;9722;48.754;8.868;2023-02-21T22:17:49;7.40;;;4.53;;
19179;SDS011;9722;48.754;8.868;2023-02-21T22:21:10;9.77;;;5.60;;
19179;SDS011;9722;48.754;8.868;2023-02-21T22:24:32;6.40;;;4.33;;
19179;SDS011;9722;48.754;8.868;2023-02-21T22:27:53;4.83;;;4.30;;
19179;SDS011;9722;48.754;8.868;2023-02-21T22:31:14;7.77;;;4.50;;
19179;SDS011;9722;48.754;8.868;2023-02-21T22:34:35;6.87;;;4.87;;
19179;SDS011;9722;48.754;8.868;2023-02-21T22:37:56;6.13;;;4.60;;
19179;SDS011;9722;48.754;8.868;2023-02-21T22:41:19;6.23;;;5.60;;
19179;SDS011;9722;48.754;8.868;2023-02-21T22:44:46;10.93;;;5.33;;
19179;SDS011;9722;48.754;8.868;2023-02-21T22:48:07;6.70;;;5.47;;
19179;SDS011;9722;48.754;8.868;2023-02-21T22:51:29;5.57;;;4.57;;
19179;SDS011;9722;48.754;8.868;2023-02-21T22:54:50;6.07;;;5.17;;